Time;durP1;ratioP1;P1;durP2;ratioP2;P2;SDS_P1;SDS_P2;PMS_P1;PMS_P2;Temp;Humidity;BMP_temperature;BMP_pressure;BME280_temperature;BME280_humidity;BME280_pressure;Samples;Min_cycle;Max_cycle;Signal;HPM_P1;HPM_P2
2021/07/30 00:01:18;;;;;;;;;;;;;;;21.22;54.42;100577.91;2210763;39;115524;-54
2021/07/30 00:02:50;;;;;;;;;;;;;;;21.23;54.36;100573.97;2211213;39;115593;-53
2021/07/30 00:04:22;;;;;;;;;;;;;;;21.24;54.52;100574.78;2211185;39;116272;-53
2021/07/30 00:05:53;;;;;;;;;;;;;;;21.24;54.44;100564.38;2213430;39;114798;-54
2021/07/30 00:07:26;;;;;;;;;;;;;;;21.27;54.84;100574.13;2207889;39;114187;-54
2021/07/30 00:08:58;;;;;;;;;;;;;;;21.26;54.42;100566.84;2214779;39;114096;-54
2021/07/30 00:10:29;;;;;;;;;;;;;;;21.25;54.72;100559.59;2208496;39;113697;-53
2021/07/30 00:12:01;;;;;;;;;;;;;;;21.24;54.94;100563.56;2210108;39;113900;-54
2021/07/30 00:13:33;;;;;;;;;;;;;;;21.24;54.63;100560.75;2211487;39;113613;-54
2021/07/30 00:15:06;;;;;;;;;;;;;;;21.25;54.57;100556.78;2210940;39;113881;-53
2021/07/30 00:16:39;;;;;;;;;;;;;;;21.24;54.74;100552.31;2210954;39;113826;-54
2021/07/30 00:18:11;;;;;;;;;;;;;;;21.26;54.89;100550.81;2208336;39;113815;-54
2021/07/30 00:19:42;;;;;;;;;;;;;;;21.26;55.06;100550.81;2207504;39;113902;-55
2021/07/30 00:21:14;;;;;;;;;;;;;;;21.24;55.16;100544.72;2211116;39;114036;-53
2021/07/30 00:22:46;;;;;;;;;;;;;;;21.27;55.03;100554.47;2211665;39;114137;-54
2021/07/30 00:24:17;;;;;;;;;;;;;;;21.27;55.09;100546.03;2207639;39;113813;-54
2021/07/30 00:25:49;;;;;;;;;;;;;;;21.27;55.23;100541.25;2211154;39;113674;-54
2021/07/30 00:27:21;;;;;;;;;;;;;;;21.28;55.40;100542.91;2216018;39;114243;-53
2021/07/30 00:28:52;;;;;;;;;;;;;;;21.28;55.17;100537.28;2215944;39;113639;-54
2021/07/30 00:30:24;;;;;;;;;;;;;;;21.28;55.27;100533.66;2207467;39;113983;-53
2021/07/30 00:31:56;;;;;;;;;;;;;;;21.28;55.37;100528.03;2205343;39;114877;-54
2021/07/30 00:33:27;;;;;;;;;;;;;;;21.27;55.48;100523.56;2213830;39;114879;-53
2021/07/30 00:34:59;;;;;;;;;;;;;;;21.28;55.58;100522.41;2210136;39;115225;-54
2021/07/30 00:36:30;;;;;;;;;;;;;;;21.27;55.36;100521.59;2207043;39;115038;-53
2021/07/30 00:38:02;;;;;;;;;;;;;;;21.27;55.52;100521.59;2209274;39;114910;-53
2021/07/30 00:39:34;;;;;;;;;;;;;;;21.29;55.79;100521.28;2209657;39;114921;-54
2021/07/30 00:41:05;;;;;;;;;;;;;;;21.32;55.62;100522.59;2211355;39;115579;-54
2021/07/30 00:42:46;;;;;;;;;;;;;;;21.32;55.55;100523.41;2211506;39;114712;-53
2021/07/30 00:44:18;;;;;;;;;;;;;;;21.33;55.82;100513.00;2211283;39;114374;-54
2021/07/30 00:45:53;;;;;;;;;;;;;;;21.33;55.70;100513.84;2210677;39;114609;-53
2021/07/30 00:47:27;;;;;;;;;;;;;;;21.35;55.79;100508.72;2210881;39;114396;-53
2021/07/30 00:48:59;;;;;;;;;;;;;;;21.34;55.56;100501.47;2209992;39;115040;-54
2021/07/30 00:50:31;;;;;;;;;;;;;;;21.37;56.00;100508.41;2207577;39;114914;-53
2021/07/30 00:52:03;;;;;;;;;;;;;;;21.39;55.92;100506.09;2211138;39;115784;-54
2021/07/30 00:53:34;;;;;;;;;;;;;;;21.38;55.89;100513.69;2209957;39;115601;-54
2021/07/30 00:55:07;;;;;;;;;;;;;;;21.41;55.71;100517.84;2203654;39;115494;-53
2021/07/30 00:56:39;;;;;;;;;;;;;;;21.41;55.80;100518.66;2209111;39;115821;-53
2021/07/30 00:58:11;;;;;;;;;;;;;;;21.42;55.81;100514.72;2210593;39;115654;-53
2021/07/30 00:59:43;;;;;;;;;;;;;;;21.42;56.03;100514.72;2210075;39;115711;-54
2021/07/30 01:01:15;;;;;;;;;;;;;;;21.43;56.22;100516.38;2211270;39;114638;-53
2021/07/30 01:02:47;;;;;;;;;;;;;;;21.44;55.87;100517.19;2210712;39;115823;-55
2021/07/30 01:04:19;;;;;;;;;;;;;;;21.43;55.83;100521.16;2209512;39;115616;-54
2021/07/30 01:05:51;;;;;;;;;;;;;;;21.45;55.99;100508.44;2211400;39;115715;-54
2021/07/30 01:07:22;;;;;;;;;;;;;;;21.46;56.13;100503.63;2211547;39;115485;-54
2021/07/30 01:08:54;;;;;;;;;;;;;;;21.45;55.93;100508.44;2210280;39;114526;-54
2021/07/30 01:10:26;;;;;;;;;;;;;;;21.47;56.29;100499.69;2211347;39;115459;-53
2021/07/30 01:11:59;;;;;;;;;;;;;;;21.46;56.07;100512.06;2218339;39;115394;-53
2021/07/30 01:13:31;;;;;;;;;;;;;;;21.46;56.19;100507.28;2211412;39;113996;-53
2021/07/30 01:15:03;;;;;;;;;;;;;;;21.46;56.21;100506.44;2214347;39;113661;-53
2021/07/30 01:16:35;;;;;;;;;;;;;;;21.45;56.15;100508.44;2212670;39;113745;-54
2021/07/30 01:18:06;;;;;;;;;;;;;;;21.47;56.18;100513.72;2210565;39;113640;-53
2021/07/30 01:19:38;;;;;;;;;;;;;;;21.47;56.30;100499.69;2210270;39;113617;-54
2021/07/30 01:21:23;;;;;;;;;;;;;;;21.45;56.16;100499.16;2210620;39;113585;-53
2021/07/30 01:22:56;;;;;;;;;;;;;;;21.46;56.20;100493.22;2207488;39;113875;-54
2021/07/30 01:24:27;;;;;;;;;;;;;;;21.47;56.21;100480.00;2205299;39;113779;-54
2021/07/30 01:25:59;;;;;;;;;;;;;;;21.47;56.17;100491.25;2210098;39;114043;-53
2021/07/30 01:27:31;;;;;;;;;;;;;;;21.45;56.63;100488.75;2211099;39;113636;-54
2021/07/30 01:29:02;;;;;;;;;;;;;;;21.45;56.76;100479.47;2211027;39;113864;-53
2021/07/30 01:30:35;;;;;;;;;;;;;;;21.45;56.36;100485.94;2211222;39;113648;-53
2021/07/30 01:32:07;;;;;;;;;;;;;;;21.47;56.58;100475.22;2210670;39;113782;-54
2021/07/30 01:33:38;;;;;;;;;;;;;;;21.48;56.65;100468.44;2212117;39;113890;-54
2021/07/30 01:35:10;;;;;;;;;;;;;;;21.49;56.54;100463.63;2210767;39;115323;-53
2021/07/30 01:36:42;;;;;;;;;;;;;;;21.50;56.47;100459.66;2210576;39;114871;-53
2021/07/30 01:38:13;;;;;;;;;;;;;;;21.48;56.62;100460.00;2211105;39;115082;-54
2021/07/30 01:39:45;;;;;;;;;;;;;;;21.49;56.75;100447.59;2209141;39;115133;-54
2021/07/30 01:41:17;;;;;;;;;;;;;;;21.47;56.90;100452.72;2210544;39;115472;-53
2021/07/30 01:42:48;;;;;;;;;;;;;;;21.48;56.81;100451.56;2210533;39;114970;-53
2021/07/30 01:44:20;;;;;;;;;;;;;;;21.47;56.63;100443.47;2210686;39;114889;-53
2021/07/30 01:45:52;;;;;;;;;;;;;;;21.50;57.04;100442.78;2210190;39;115159;-54
2021/07/30 01:47:23;;;;;;;;;;;;;;;21.48;56.95;100439.50;2210661;39;114193;-54
2021/07/30 01:48:55;;;;;;;;;;;;;;;21.49;56.82;100435.50;2204706;39;113981;-53
2021/07/30 01:50:26;;;;;;;;;;;;;;;21.49;57.03;100432.69;2210167;39;114824;-53
2021/07/30 01:51:58;;;;;;;;;;;;;;;21.48;57.36;100434.72;2211050;39;114626;-54
2021/07/30 01:53:30;;;;;;;;;;;;;;;21.47;57.25;100433.03;2209432;39;114867;-54
2021/07/30 01:55:02;;;;;;;;;;;;;;;21.46;57.15;100431.38;2213077;39;114397;-53
2021/07/30 01:56:34;;;;;;;;;;;;;;;21.46;57.30;100425.75;2210954;39;115417;-53
2021/07/30 01:58:05;;;;;;;;;;;;;;;21.45;57.27;100420.47;2211054;39;114728;-53
2021/07/30 01:59:40;;;;;;;;;;;;;;;21.45;57.45;100415.66;2209450;39;115474;-53
2021/07/30 02:01:11;;;;;;;;;;;;;;;21.43;57.17;100411.53;2209422;39;115830;-53
2021/07/30 02:02:43;;;;;;;;;;;;;;;21.44;57.19;100411.19;2210377;39;115458;-54
2021/07/30 02:04:18;;;;;;;;;;;;;;;21.44;57.15;100414.00;2210128;39;115504;-53
2021/07/30 02:05:50;;;;;;;;;;;;;;;21.46;57.35;100413.69;2208165;39;116398;-54
2021/07/30 02:07:21;;;;;;;;;;;;;;;21.47;57.32;100406.91;2215018;39;114933;-53
2021/07/30 02:09:00;;;;;;;;;;;;;;;21.46;57.53;100394.84;2211363;39;116136;-54
2021/07/30 02:10:32;;;;;;;;;;;;;;;21.47;57.35;100392.88;2206439;39;114686;-54
2021/07/30 02:12:04;;;;;;;;;;;;;;;21.51;57.26;100389.06;2205972;39;115430;-53
2021/07/30 02:15:17;;;;;;;;;;;;;;;21.51;57.69;100375.03;2207938;39;115480;-54
2021/07/30 02:16:50;;;;;;;;;;;;;;;21.53;57.49;100377.50;2205496;39;115491;-54
2021/07/30 02:18:22;;;;;;;;;;;;;;;21.54;57.45;100365.91;2212930;39;115411;-54
2021/07/30 02:19:53;;;;;;;;;;;;;;;21.53;57.65;100375.50;2209658;39;113949;-54
2021/07/30 02:21:25;;;;;;;;;;;;;;;21.52;57.31;100365.44;2210883;39;113832;-53
2021/07/30 02:22:57;;;;;;;;;;;;;;;21.55;57.45;100361.94;2210006;39;113696;-53
2021/07/30 02:24:28;;;;;;;;;;;;;;;21.52;57.49;100356.16;2205791;39;113803;-54
2021/07/30 02:26:00;;;;;;;;;;;;;;;21.51;57.31;100349.72;2210809;39;113707;-53
2021/07/30 02:27:32;;;;;;;;;;;;;;;21.51;57.46;100360.97;2210065;39;113972;-54
2021/07/30 02:29:04;;;;;;;;;;;;;;;21.52;57.34;100361.78;2206350;39;114178;-54
2021/07/30 02:30:36;;;;;;;;;;;;;;;21.50;57.81;100350.03;2208699;39;114052;-54
2021/07/30 02:32:07;;;;;;;;;;;;;;;21.50;57.53;100339.63;2210438;39;113875;-54
2021/07/30 02:33:39;;;;;;;;;;;;;;;21.49;57.57;100335.16;2210686;39;113722;-53
2021/07/30 02:35:10;;;;;;;;;;;;;;;21.50;57.78;100338.78;2210710;39;114493;-54
2021/07/30 02:36:43;;;;;;;;;;;;;;;21.50;57.58;100330.34;2210150;39;113921;-54
2021/07/30 02:38:14;;;;;;;;;;;;;;;21.47;57.71;100323.44;2210781;39;113734;-53
2021/07/30 02:39:46;;;;;;;;;;;;;;;21.49;57.56;100311.84;2212923;39;113741;-54
2021/07/30 02:41:18;;;;;;;;;;;;;;;21.51;58.02;100307.56;2210815;39;114792;-54
2021/07/30 02:42:49;;;;;;;;;;;;;;;21.49;57.76;100311.84;2209465;39;115489;-54
2021/07/30 02:44:21;;;;;;;;;;;;;;;21.52;57.62;100308.38;2209737;39;114050;-54
2021/07/30 02:45:53;;;;;;;;;;;;;;;21.53;57.80;100307.22;2209769;39;114964;-54
2021/07/30 02:47:24;;;;;;;;;;;;;;;21.52;58.00;100303.59;2209991;39;113934;-53
2021/07/30 02:48:56;;;;;;;;;;;;;;;21.52;57.70;100305.56;2210019;39;114802;-54
2021/07/30 02:50:28;;;;;;;;;;;;;;;21.52;57.82;100295.16;2210365;39;115012;-53
2021/07/30 02:51:59;;;;;;;;;;;;;;;21.54;57.95;100298.44;2210334;39;115120;-54
2021/07/30 02:53:31;;;;;;;;;;;;;;;21.53;57.91;100296.78;2207493;39;114775;-54
2021/07/30 02:55:03;;;;;;;;;;;;;;;21.54;58.10;100295.63;2209174;39;115373;-54
2021/07/30 02:56:35;;;;;;;;;;;;;;;21.61;57.71;100303.59;2209966;39;115265;-53
2021/07/30 02:58:06;;;;;;;;;;;;;;;21.56;57.86;100287.72;2209553;39;115559;-53
2021/07/30 02:59:38;;;;;;;;;;;;;;;21.54;58.07;100290.00;2207793;39;114971;-53
2021/07/30 03:01:10;;;;;;;;;;;;;;;21.51;57.67;100284.25;2213417;39;115127;-54
2021/07/30 03:02:41;;;;;;;;;;;;;;;21.50;57.64;100294.66;2208513;39;115634;-54
2021/07/30 03:04:18;;;;;;;;;;;;;;;21.49;57.76;100292.16;2210575;39;115525;-54
2021/07/30 03:05:50;;;;;;;;;;;;;;;21.49;58.08;100290.19;2210866;39;115580;-54
2021/07/30 03:07:21;;;;;;;;;;;;;;;21.47;57.68;100283.25;2209988;39;114757;-54
2021/07/30 03:08:55;;;;;;;;;;;;;;;21.47;57.81;100298.13;2210156;39;115046;-54
2021/07/30 03:10:27;;;;;;;;;;;;;;;21.46;57.90;100282.41;2207920;39;114462;-53
2021/07/30 03:11:58;;;;;;;;;;;;;;;21.45;57.80;100269.50;2207603;39;115726;-54
2021/07/30 03:13:30;;;;;;;;;;;;;;;21.46;57.78;100265.56;2210864;39;114936;-53
2021/07/30 03:15:02;;;;;;;;;;;;;;;21.44;57.77;100251.00;2210077;39;115480;-54
2021/07/30 03:16:33;;;;;;;;;;;;;;;21.43;57.66;100255.00;2210501;39;114771;-54
2021/07/30 03:18:05;;;;;;;;;;;;;;;21.42;57.72;100261.75;2209294;39;115892;-53
2021/07/30 03:19:36;;;;;;;;;;;;;;;21.44;57.84;100261.44;2206509;39;114767;-54
2021/07/30 03:21:08;;;;;;;;;;;;;;;21.41;57.85;100262.91;2211065;39;115545;-54
2021/07/30 03:22:40;;;;;;;;;;;;;;;21.41;57.78;100256.47;2208768;39;115024;-54
2021/07/30 03:24:11;;;;;;;;;;;;;;;21.40;57.76;100241.56;2210146;39;113770;-53
2021/07/30 03:25:43;;;;;;;;;;;;;;;21.41;57.98;100245.22;2211071;39;113753;-54
2021/07/30 03:27:15;;;;;;;;;;;;;;;21.41;57.92;100256.47;2211073;39;113764;-53
2021/07/30 03:28:48;;;;;;;;;;;;;;;21.39;57.48;100245.56;2215740;39;113833;-54
2021/07/30 03:30:20;;;;;;;;;;;;;;;21.41;57.81;100231.16;2207447;39;114403;-55
2021/07/30 03:31:52;;;;;;;;;;;;;;;21.40;57.87;100233.16;2206903;39;114098;-53
2021/07/30 03:33:23;;;;;;;;;;;;;;;21.39;57.86;100227.88;2205804;39;114354;-54
2021/07/30 03:34:55;;;;;;;;;;;;;;;21.38;57.70;100231.84;2207420;39;113861;-54
2021/07/30 03:36:27;;;;;;;;;;;;;;;21.38;58.15;100224.25;2211154;39;114037;-54
2021/07/30 03:37:59;;;;;;;;;;;;;;;21.41;58.14;100233.97;2210410;39;114663;-54
2021/07/30 03:39:30;;;;;;;;;;;;;;;21.39;58.00;100234.31;2209637;39;113912;-54
2021/07/30 03:41:02;;;;;;;;;;;;;;;21.38;57.87;100224.25;2210679;39;113893;-54
2021/07/30 03:42:34;;;;;;;;;;;;;;;21.39;57.87;100223.09;2210230;39;114101;-53
2021/07/30 03:44:07;;;;;;;;;;;;;;;21.38;57.80;100215.81;2210426;39;113740;-54
2021/07/30 03:45:38;;;;;;;;;;;;;;;21.39;57.81;100216.63;2211355;39;113616;-54
2021/07/30 03:47:10;;;;;;;;;;;;;;;21.37;57.99;100219.75;2210375;39;115314;-54
2021/07/30 03:48:42;;;;;;;;;;;;;;;21.39;58.11;100213.81;2210600;39;115250;-54
2021/07/30 03:50:13;;;;;;;;;;;;;;;21.37;57.89;100213.31;2211049;39;114839;-54
2021/07/30 03:51:45;;;;;;;;;;;;;;;21.38;57.83;100198.94;2210988;39;114961;-53
2021/07/30 03:53:17;;;;;;;;;;;;;;;21.39;57.97;100202.59;2210890;39;114847;-53
2021/07/30 03:54:48;;;;;;;;;;;;;;;21.39;57.87;100194.16;2210452;39;114812;-54
2021/07/30 03:56:20;;;;;;;;;;;;;;;21.39;57.69;100197.78;2207495;39;114807;-54
2021/07/30 03:57:51;;;;;;;;;;;;;;;21.37;57.68;100191.66;2209027;39;115116;-54
2021/07/30 03:59:23;;;;;;;;;;;;;;;21.37;57.66;100193.66;2210727;39;115401;-53
2021/07/30 04:00:55;;;;;;;;;;;;;;;21.37;57.94;100193.66;2209069;39;114825;-54
2021/07/30 04:02:27;;;;;;;;;;;;;;;21.40;57.89;100190.16;2209678;39;115128;-53
2021/07/30 04:03:59;;;;;;;;;;;;;;;21.38;57.85;100189.69;2209562;39;115085;-53
2021/07/30 04:05:31;;;;;;;;;;;;;;;21.36;58.02;100184.38;2210186;39;114831;-53
2021/07/30 04:07:02;;;;;;;;;;;;;;;21.35;58.21;100181.94;2212024;39;115113;-53
2021/07/30 04:08:34;;;;;;;;;;;;;;;21.36;58.03;100184.38;2210211;39;116160;-53
2021/07/30 04:10:07;;;;;;;;;;;;;;;21.36;57.82;100175.97;2209466;39;115202;-53
2021/07/30 04:11:38;;;;;;;;;;;;;;;21.35;57.76;100176.31;2210141;39;115622;-53
2021/07/30 04:13:10;;;;;;;;;;;;;;;21.35;57.78;100176.31;2210490;39;115758;-53
2021/07/30 04:14:42;;;;;;;;;;;;;;;21.35;57.98;100176.31;2210301;39;115566;-54
2021/07/30 04:16:14;;;;;;;;;;;;;;;21.37;57.90;100173.97;2211486;39;115554;-53
2021/07/30 04:17:48;;;;;;;;;;;;;;;21.40;57.81;100170.50;2211604;39;115456;-53
2021/07/30 04:19:19;;;;;;;;;;;;;;;21.41;58.00;100175.78;2211133;39;115535;-53
2021/07/30 04:20:51;;;;;;;;;;;;;;;21.37;57.90;100165.53;2210281;39;115499;-53
2021/07/30 04:22:23;;;;;;;;;;;;;;;21.36;58.00;100166.69;2210776;39;115802;-53
2021/07/30 04:23:54;;;;;;;;;;;;;;;21.36;58.05;100158.25;2211260;39;115667;-54
2021/07/30 04:25:26;;;;;;;;;;;;;;;21.37;58.28;100155.13;2210614;39;115589;-53
2021/07/30 04:26:58;;;;;;;;;;;;;;;21.38;58.27;100158.78;2211142;39;115490;-54
2021/07/30 04:28:29;;;;;;;;;;;;;;;21.35;58.23;100160.25;2213269;39;115480;-54
2021/07/30 04:30:01;;;;;;;;;;;;;;;21.38;58.36;100155.97;2211065;39;113590;-53
2021/07/30 04:31:36;;;;;;;;;;;;;;;21.40;58.57;100157.25;2209409;39;113721;-54
2021/07/30 04:33:09;;;;;;;;;;;;;;;21.43;58.74;100158.59;2211096;39;113676;-53
2021/07/30 04:34:41;;;;;;;;;;;;;;;21.41;58.57;100150.50;2209438;39;113897;-54
2021/07/30 04:36:14;;;;;;;;;;;;;;;21.41;58.38;100150.50;2210831;39;113953;-54
2021/07/30 04:37:45;;;;;;;;;;;;;;;21.41;58.55;100144.88;2210545;39;114093;-53
2021/07/30 04:39:17;;;;;;;;;;;;;;;21.42;58.55;100148.50;2211173;39;113672;-54
2021/07/30 04:40:48;;;;;;;;;;;;;;;21.43;58.76;100141.75;2210954;39;113872;-53
2021/07/30 04:42:20;;;;;;;;;;;;;;;21.42;58.74;100132.47;2208979;39;113919;-54
2021/07/30 04:43:52;;;;;;;;;;;;;;;21.40;58.80;100126.34;2210969;39;113839;-54
2021/07/30 04:45:24;;;;;;;;;;;;;;;21.42;58.93;100126.84;2209757;39;113664;-54
2021/07/30 04:46:56;;;;;;;;;;;;;;;21.42;58.93;100126.84;2202313;39;113860;-55
2021/07/30 04:48:27;;;;;;;;;;;;;;;21.40;58.62;100129.16;2208363;39;114152;-54
2021/07/30 04:49:59;;;;;;;;;;;;;;;21.40;59.03;100117.91;2207541;39;113728;-54
2021/07/30 04:51:31;;;;;;;;;;;;;;;21.40;58.93;100117.91;2211454;39;114960;-54
2021/07/30 04:53:02;;;;;;;;;;;;;;;21.40;59.09;100112.31;2210697;39;114826;-54
2021/07/30 04:54:34;;;;;;;;;;;;;;;21.41;58.94;100115.94;2210832;39;114368;-53
2021/07/30 04:56:06;;;;;;;;;;;;;;;21.40;59.15;100117.09;2211960;39;114652;-54
2021/07/30 04:57:37;;;;;;;;;;;;;;;21.38;59.10;100111.84;2210994;39;115120;-53
2021/07/30 04:59:09;;;;;;;;;;;;;;;21.39;59.07;100116.28;2211949;39;114257;-54
2021/07/30 05:00:40;;;;;;;;;;;;;;;21.41;59.33;100118.75;2211114;39;115038;-54
2021/07/30 05:02:12;;;;;;;;;;;;;;;21.39;59.19;100116.28;2208363;39;113669;-54
2021/07/30 05:03:44;;;;;;;;;;;;;;;21.40;59.44;100122.72;2210035;39;114997;-54
2021/07/30 05:05:16;;;;;;;;;;;;;;;21.37;59.40;100118.59;2209936;39;114759;-53
2021/07/30 05:06:47;;;;;;;;;;;;;;;21.38;59.70;100114.63;2209425;39;114074;-54
2021/07/30 05:08:19;;;;;;;;;;;;;;;21.42;59.66;100126.03;2211116;39;115012;-54
2021/07/30 05:09:51;;;;;;;;;;;;;;;21.42;59.73;100123.22;2210536;39;114813;-54
2021/07/30 05:11:23;;;;;;;;;;;;;;;21.43;59.53;100120.09;2212565;39;114235;-54
2021/07/30 05:12:54;;;;;;;;;;;;;;;21.43;59.57;100119.25;2211014;39;115629;-54
2021/07/30 05:14:26;;;;;;;;;;;;;;;21.42;59.71;100115.63;2210987;39;115917;-54
2021/07/30 05:15:59;;;;;;;;;;;;;;;21.43;59.81;100122.06;2210769;39;115490;-55
2021/07/30 05:17:31;;;;;;;;;;;;;;;21.45;59.56;100122.53;2210141;39;115670;-54
2021/07/30 05:19:03;;;;;;;;;;;;;;;21.43;59.80;100122.91;2210414;39;115912;-53
2021/07/30 05:20:37;;;;;;;;;;;;;;;21.43;60.00;100120.09;2211549;39;115723;-54
2021/07/30 05:22:08;;;;;;;;;;;;;;;21.44;59.60;100116.09;2205083;39;115833;-54
2021/07/30 05:23:40;;;;;;;;;;;;;;;21.45;59.87;100100.06;2210747;39;115482;-53
2021/07/30 05:25:12;;;;;;;;;;;;;;;21.46;59.65;100104.53;2211058;39;115406;-54
2021/07/30 05:26:43;;;;;;;;;;;;;;;21.46;59.95;100099.72;2211154;39;115749;-54
2021/07/30 05:28:15;;;;;;;;;;;;;;;21.47;59.92;100100.56;2206405;39;116956;-53
2021/07/30 05:29:47;;;;;;;;;;;;;;;21.46;59.86;100091.31;2208839;39;115454;-53
2021/07/30 05:31:19;;;;;;;;;;;;;;;21.46;60.00;100093.28;2202269;39;115690;-54
2021/07/30 05:32:50;;;;;;;;;;;;;;;21.46;60.02;100082.03;2204417;39;116040;-54
2021/07/30 05:34:22;;;;;;;;;;;;;;;21.44;59.87;100081.56;2213449;39;114594;-55
2021/07/30 05:35:54;;;;;;;;;;;;;;;21.44;59.78;100073.94;2209418;39;113619;-54
2021/07/30 05:37:25;;;;;;;;;;;;;;;21.45;59.84;100077.56;2205523;39;113799;-54
2021/07/30 05:38:57;;;;;;;;;;;;;;;21.45;59.76;100081.22;2210935;39;113877;-54
2021/07/30 05:40:29;;;;;;;;;;;;;;;21.44;60.06;100082.38;2211046;39;113685;-54
2021/07/30 05:42:01;;;;;;;;;;;;;;;21.47;59.84;100083.69;2210655;39;113608;-55
2021/07/30 05:43:33;;;;;;;;;;;;;;;21.45;59.79;100084.03;2211260;39;113651;-54
2021/07/30 05:45:05;;;;;;;;;;;;;;;21.45;59.87;100086.84;2210543;39;113655;-53
2021/07/30 05:46:37;;;;;;;;;;;;;;;21.45;60.19;100091.63;2211422;39;113859;-53
2021/07/30 05:48:08;;;;;;;;;;;;;;;21.44;60.09;100102.03;2211755;39;113597;-54
2021/07/30 05:49:40;;;;;;;;;;;;;;;21.46;60.00;100098.91;2211071;39;113859;-53
2021/07/30 05:51:12;;;;;;;;;;;;;;;21.46;59.95;100096.91;2210612;39;113943;-54
2021/07/30 05:52:44;;;;;;;;;;;;;;;21.44;59.74;100088.00;2208346;39;113947;-53
2021/07/30 05:54:15;;;;;;;;;;;;;;;21.47;60.10;100098.56;2210259;39;114069;-55
2021/07/30 05:55:47;;;;;;;;;;;;;;;21.46;59.77;100096.09;2213441;39;113803;-54
2021/07/30 05:57:19;;;;;;;;;;;;;;;21.47;59.77;100100.56;2210754;39;114557;-54
2021/07/30 05:58:50;;;;;;;;;;;;;;;21.46;59.83;100101.72;2210247;39;113930;-54
2021/07/30 06:00:22;;;;;;;;;;;;;;;21.46;59.97;100107.34;2213857;39;115392;-55
2021/07/30 06:01:53;;;;;;;;;;;;;;;21.48;59.60;100102.22;2209365;39;113925;-53
2021/07/30 06:03:25;;;;;;;;;;;;;;;21.46;59.71;100101.72;2210164;39;114806;-54
2021/07/30 06:04:57;;;;;;;;;;;;;;;21.49;59.40;100101.03;2210921;39;114850;-53
2021/07/30 06:06:30;;;;;;;;;;;;;;;21.46;59.79;100099.72;2211641;39;114758;-54
2021/07/30 06:08:05;;;;;;;;;;;;;;;21.48;59.68;100091.81;2209714;39;114971;-53
2021/07/30 06:09:37;;;;;;;;;;;;;;;21.46;59.46;100094.13;2210069;39;113885;-54
2021/07/30 06:11:08;;;;;;;;;;;;;;;21.48;59.56;100091.81;2210336;39;115047;-53
2021/07/30 06:12:40;;;;;;;;;;;;;;;21.48;59.16;100089.00;2211069;39;115326;-53
2021/07/30 06:14:11;;;;;;;;;;;;;;;21.47;59.30;100078.91;2210060;39;115404;-54
2021/07/30 06:15:43;;;;;;;;;;;;;;;21.46;59.44;100082.88;2210579;39;115027;-54
2021/07/30 06:17:15;;;;;;;;;;;;;;;21.47;59.49;100078.91;2213012;39;114791;-54
2021/07/30 06:18:47;;;;;;;;;;;;;;;21.46;59.06;100074.44;2210832;39;116188;-53
2021/07/30 06:20:19;;;;;;;;;;;;;;;21.47;59.45;100067.66;2209801;39;115564;-56
2021/07/30 06:21:53;;;;;;;;;;;;;;;21.50;59.37;100078.22;2210802;39;114590;-54
2021/07/30 06:23:25;;;;;;;;;;;;;;;21.49;59.36;100073.75;2216386;39;115854;-53
2021/07/30 06:24:57;;;;;;;;;;;;;;;21.49;59.33;100062.50;2212606;39;115718;-53
2021/07/30 06:26:28;;;;;;;;;;;;;;;21.50;59.23;100081.03;2210707;39;114633;-54
2021/07/30 06:28:01;;;;;;;;;;;;;;;21.52;58.91;100069.47;2210333;39;115421;-55
2021/07/30 06:29:33;;;;;;;;;;;;;;;21.49;59.21;100085.00;2210723;39;116259;-53
2021/07/30 06:31:05;;;;;;;;;;;;;;;21.49;59.00;100068.13;2210771;39;115673;-54
2021/07/30 06:32:37;;;;;;;;;;;;;;;21.49;59.00;100073.75;2210529;39;115474;-54
2021/07/30 06:34:09;;;;;;;;;;;;;;;21.50;58.79;100074.59;2211402;39;116066;-53
2021/07/30 06:35:41;;;;;;;;;;;;;;;21.48;59.00;100069.31;2210582;39;115590;-54
2021/07/30 06:37:12;;;;;;;;;;;;;;;21.50;59.04;100066.97;2211370;39;115621;-54
2021/07/30 06:38:44;;;;;;;;;;;;;;;21.49;58.83;100068.13;2213042;39;115434;-53
2021/07/30 06:40:16;;;;;;;;;;;;;;;21.50;59.01;100068.97;2208581;39;113781;-54
2021/07/30 06:41:47;;;;;;;;;;;;;;;21.49;58.88;100068.13;2211682;39;113734;-54
2021/07/30 06:43:19;;;;;;;;;;;;;;;21.52;59.04;100059.06;2211397;39;113790;-54
2021/07/30 06:44:53;;;;;;;;;;;;;;;21.49;58.81;100040.03;2207129;39;113669;-53
2021/07/30 06:46:25;;;;;;;;;;;;;;;21.50;59.03;100049.28;2205663;39;113911;-54
2021/07/30 06:47:57;;;;;;;;;;;;;;;21.46;59.28;100040.72;2211217;39;114167;-54
2021/07/30 06:49:29;;;;;;;;;;;;;;;21.49;59.23;100042.84;2211029;39;113768;-53
2021/07/30 06:51:00;;;;;;;;;;;;;;;21.47;59.40;100038.72;2206085;39;113842;-54
2021/07/30 06:52:32;;;;;;;;;;;;;;;21.48;59.25;100046.84;2210138;39;113970;-53
2021/07/30 06:54:05;;;;;;;;;;;;;;;21.50;59.09;100033.25;2211289;39;113835;-53
2021/07/30 06:55:36;;;;;;;;;;;;;;;21.49;59.22;100033.56;2211109;39;113744;-54
2021/07/30 06:57:08;;;;;;;;;;;;;;;21.49;58.91;100031.59;2210893;39;113678;-53
2021/07/30 06:58:41;;;;;;;;;;;;;;;21.47;59.00;100033.94;2210746;39;113950;-54
2021/07/30 07:00:13;;;;;;;;;;;;;;;21.49;58.78;100034.41;2212363;39;113798;-53
2021/07/30 07:01:45;;;;;;;;;;;;;;;21.48;59.01;100024.34;2213629;39;113772;-54
2021/07/30 07:03:17;;;;;;;;;;;;;;;21.49;59.19;100025.16;2208621;39;115792;-54
2021/07/30 07:04:51;;;;;;;;;;;;;;;21.48;58.90;100021.53;2204594;39;114957;-53
2021/07/30 07:06:24;;;;;;;;;;;;;;;21.49;58.94;100009.09;2203019;39;114068;-53
2021/07/30 07:07:56;;;;;;;;;;;;;;;21.50;58.85;100009.94;2208486;39;115319;-54
2021/07/30 07:09:29;;;;;;;;;;;;;;;21.50;58.88;100013.56;2208200;39;113847;-53
2021/07/30 07:11:02;;;;;;;;;;;;;;;21.49;58.85;100003.50;2204483;39;115404;-54
2021/07/30 07:12:36;;;;;;;;;;;;;;;21.51;58.79;99995.56;2207777;39;115299;-54
2021/07/30 07:14:08;;;;;;;;;;;;;;;21.49;58.91;100011.09;2211591;39;114905;-53
2021/07/30 07:15:43;;;;;;;;;;;;;;;21.49;58.85;99999.84;2213385;39;114447;-53
2021/07/30 07:17:15;;;;;;;;;;;;;;;21.47;59.01;100000.22;2213869;39;115032;-54
2021/07/30 07:18:47;;;;;;;;;;;;;;;21.49;58.94;99986.63;2211587;39;114545;-53
2021/07/30 07:20:19;;;;;;;;;;;;;;;21.51;58.90;99989.09;2211152;39;114852;-53
2021/07/30 07:21:51;;;;;;;;;;;;;;;21.53;58.99;99992.41;2210954;39;114867;-54
2021/07/30 07:23:23;;;;;;;;;;;;;;;21.48;58.91;99984.19;2212390;39;113969;-53
2021/07/30 07:24:57;;;;;;;;;;;;;;;21.50;59.21;99988.28;2213118;39;115510;-54
2021/07/30 07:26:28;;;;;;;;;;;;;;;21.50;58.68;99982.66;2209376;39;115906;-54
2021/07/30 07:28:00;;;;;;;;;;;;;;;21.49;59.01;99985.81;2211177;39;114673;-54
2021/07/30 07:29:33;;;;;;;;;;;;;;;21.48;58.77;99976.56;2210600;39;115572;-53
2021/07/30 07:31:05;;;;;;;;;;;;;;;21.51;59.20;99972.25;2210670;39;115836;-53
2021/07/30 07:32:36;;;;;;;;;;;;;;;21.49;58.99;99980.19;2211285;39;114815;-53
2021/07/30 07:34:08;;;;;;;;;;;;;;;21.50;58.91;99967.78;2211422;39;115704;-54
2021/07/30 07:35:40;;;;;;;;;;;;;;;21.49;58.78;99980.19;2211488;39;115698;-53
2021/07/30 07:37:11;;;;;;;;;;;;;;;21.47;58.90;99974.91;2210452;39;114662;-54
2021/07/30 07:38:43;;;;;;;;;;;;;;;21.51;58.90;99978.69;2211079;39;114746;-54
2021/07/30 07:40:15;;;;;;;;;;;;;;;21.51;58.78;99977.88;2211568;39;116587;-53
2021/07/30 07:41:47;;;;;;;;;;;;;;;21.48;59.09;99970.13;2211515;39;115889;-54
2021/07/30 07:43:19;;;;;;;;;;;;;;;21.50;58.74;99970.59;2211349;39;114801;-54
2021/07/30 07:44:51;;;;;;;;;;;;;;;21.48;58.71;99975.75;2206495;39;115676;-54
2021/07/30 07:46:22;;;;;;;;;;;;;;;21.50;59.01;99976.22;2202696;39;114239;-54
2021/07/30 07:47:54;;;;;;;;;;;;;;;21.48;58.96;99968.13;2210738;39;113612;-54
2021/07/30 07:49:26;;;;;;;;;;;;;;;21.47;59.03;99971.28;2210438;39;113948;-54